Time,TemperatureF,DewpointF,PressureIn,WindDirection,WindDirectionDegrees,WindSpeedMPH,WindSpeedGustMPH,Humidity,HourlyPrecipIn,Conditions,Clouds,dailyrainin,SoftwareType,DateUTC
2013-11-17 00:13:00,52.0,41.0,30.12,SSE,166,4.0,9.0,66,0.00,,,0.00,,2013-11-17 05:13:00,
2013-11-17 00:23:00,52.0,41.0,30.12,South,180,4.0,8.0,66,0.00,,,0.00,,2013-11-17 05:23:00,
2013-11-17 00:44:00,51.0,40.0,30.11,SSE,167,3.0,5.0,67,0.00,,,0.00,,2013-11-17 05:44:00,
2013-11-17 00:53:00,51.0,41.0,30.11,SE,146,3.0,6.0,68,0.00,,,0.00,,2013-11-17 05:53:00,
2013-11-17 01:13:00,51.0,41.0,30.10,SE,128,4.0,9.0,68,0.00,,,0.00,,2013-11-17 06:13:00,
2013-11-17 01:23:00,51.0,41.0,30.10,SSE,154,2.0,10.0,69,0.00,,,0.00,,2013-11-17 06:23:00,
2013-11-17 01:42:00,51.0,42.0,30.09,SSE,153,2.0,8.0,70,0.00,,,0.00,,2013-11-17 06:42:00,
2013-11-17 01:52:00,50.0,41.0,30.09,SSE,165,4.0,6.0,71,0.00,,,0.00,,2013-11-17 06:52:00,
2013-11-17 02:12:00,50.0,41.0,30.09,SE,146,3.0,7.0,71,0.00,,,0.00,,2013-11-17 07:12:00,
2013-11-17 02:22:00,51.0,42.0,30.09,SSE,167,2.0,7.0,72,0.00,,,0.00,,2013-11-17 07:22:00,
2013-11-17 02:42:00,51.0,42.0,30.08,SSE,150,1.0,6.0,72,0.00,,,0.00,,2013-11-17 07:42:00,
2013-11-17 02:53:00,51.0,43.0,30.08,SSE,154,1.0,5.0,73,0.00,,,0.00,,2013-11-17 07:53:00,
2013-11-17 03:12:00,50.0,42.0,30.08,SSE,167,1.0,6.0,74,0.00,,,0.00,,2013-11-17 08:12:00,
2013-11-17 03:22:00,52.0,44.0,30.07,SSE,148,3.0,9.0,73,0.00,,,0.00,,2013-11-17 08:22:00,
2013-11-17 03:42:00,52.0,44.0,30.07,South,173,3.0,9.0,73,0.00,,,0.00,,2013-11-17 08:42:00,
2013-11-17 03:52:00,53.0,44.0,30.06,South,171,5.0,15.0,72,0.00,,,0.00,,2013-11-17 08:52:00,
2013-11-17 04:12:00,53.0,44.0,30.06,SSE,163,6.0,12.0,72,0.00,,,0.00,,2013-11-17 09:12:00,
2013-11-17 04:22:00,53.0,44.0,30.05,South,190,3.0,10.0,72,0.00,,,0.00,,2013-11-17 09:22:00,
2013-11-17 04:43:00,53.0,45.0,30.04,SE,133,2.0,8.0,73,0.00,,,0.00,,2013-11-17 09:43:00,
2013-11-17 04:53:00,53.0,45.0,30.03,ESE,120,4.0,11.0,73,0.00,,,0.00,,2013-11-17 09:53:00,
2013-11-17 05:13:00,52.0,44.0,30.01,SSE,160,5.0,9.0,74,0.00,,,0.00,,2013-11-17 10:13:00,
2013-11-17 05:23:00,52.0,44.0,30.01,SSE,165,5.0,10.0,75,0.00,,,0.00,,2013-11-17 10:23:00,
2013-11-17 05:42:00,52.0,44.0,30.01,South,170,4.0,10.0,75,0.00,,,0.00,,2013-11-17 10:42:00,
2013-11-17 05:53:00,52.0,45.0,30.00,SSE,157,3.0,11.0,76,0.00,,,0.00,,2013-11-17 10:53:00,
2013-11-17 06:12:00,52.0,45.0,30.00,SSE,150,4.0,11.0,76,0.00,,,0.00,,2013-11-17 11:12:00,
2013-11-17 06:23:00,52.0,45.0,29.99,SSE,159,5.0,10.0,76,0.00,,,0.00,,2013-11-17 11:23:00,
2013-11-17 06:43:00,52.0,45.0,29.99,SSE,166,3.0,9.0,77,0.00,,,0.00,,2013-11-17 11:43:00,
2013-11-17 06:52:00,52.0,45.0,29.99,South,188,2.0,8.0,78,0.00,,,0.00,,2013-11-17 11:52:00,
2013-11-17 07:11:00,52.0,45.0,29.98,SSE,160,2.0,9.0,78,0.00,,,0.00,,2013-11-17 12:11:00,
2013-11-17 07:22:00,53.0,47.0,29.99,SSE,154,3.0,8.0,79,0.00,,,0.00,,2013-11-17 12:22:00,
2013-11-17 07:42:00,53.0,47.0,30.00,SSE,162,0.0,6.0,80,0.00,,,0.00,,2013-11-17 12:42:00,
2013-11-17 07:52:00,53.0,47.0,29.98,SSE,156,3.0,5.0,81,0.00,,,0.00,,2013-11-17 12:52:00,
2013-11-17 08:22:00,52.0,49.0,29.99,South,180,1.0,6.0,88,0.01,,,0.01,,2013-11-17 13:22:00,
2013-11-17 08:42:00,52.0,49.0,29.99,South,182,3.0,8.0,91,0.05,,,0.05,,2013-11-17 13:42:00,
2013-11-17 08:52:00,52.0,50.0,29.98,SSW,199,3.0,7.0,92,0.05,,,0.05,,2013-11-17 13:52:00,
2013-11-17 09:11:00,52.0,50.0,29.98,South,172,3.0,10.0,92,0.05,,,0.05,,2013-11-17 14:11:00,
2013-11-17 09:22:00,52.0,50.0,29.98,SSE,155,5.0,14.0,92,0.05,,,0.06,,2013-11-17 14:22:00,
2013-11-17 09:42:00,52.0,50.0,29.97,SSE,148,4.0,9.0,92,0.02,,,0.07,,2013-11-17 14:42:00,
2013-11-17 09:52:00,53.0,51.0,29.97,South,177,5.0,11.0,92,0.02,,,0.07,,2013-11-17 14:52:00,
2013-11-17 10:02:00,53.0,51.0,29.97,South,177,5.0,11.0,92,0.02,,,0.07,,2013-11-17 15:02:00,
2013-11-17 10:11:00,53.0,51.0,29.97,South,177,5.0,11.0,92,0.02,,,0.07,,2013-11-17 15:11:00,
2013-11-17 10:22:00,54.0,52.0,29.97,South,169,2.0,9.0,92,0.02,,,0.08,,2013-11-17 15:22:00,
2013-11-17 10:43:00,54.0,52.0,29.96,SE,141,4.0,8.0,92,0.02,,,0.09,,2013-11-17 15:43:00,
2013-11-17 10:54:00,54.0,52.0,29.95,SSE,167,5.0,14.0,92,0.04,,,0.11,,2013-11-17 15:54:00,
2013-11-17 11:13:00,55.0,52.0,29.95,South,171,4.0,10.0,91,0.03,,,0.11,,2013-11-17 16:13:00,
2013-11-17 11:23:00,55.0,52.0,29.93,SSE,165,4.0,12.0,90,0.02,,,0.11,,2013-11-17 16:23:00,
2013-11-17 11:42:00,55.0,52.0,29.92,SSE,154,5.0,12.0,88,0.02,,,0.11,,2013-11-17 16:42:00,
2013-11-17 11:53:00,56.0,52.0,29.92,South,171,6.0,14.0,87,0.00,,,0.11,,2013-11-17 16:53:00,
2013-11-17 12:12:00,56.0,52.0,29.91,SSE,149,4.0,13.0,87,0.00,,,0.11,,2013-11-17 17:12:00,
2013-11-17 12:22:00,57.0,53.0,29.91,South,169,5.0,11.0,86,0.00,,,0.11,,2013-11-17 17:22:00,
2013-11-17 12:43:00,57.0,53.0,29.90,SSE,159,3.0,16.0,85,0.00,,,0.11,,2013-11-17 17:43:00,
2013-11-17 12:52:00,57.0,53.0,29.89,SSE,163,2.0,10.0,85,0.00,,,0.11,,2013-11-17 17:52:00,
2013-11-17 13:12:00,58.0,53.0,29.88,South,182,5.0,12.0,82,0.00,,,0.11,,2013-11-17 18:12:00,
2013-11-17 13:23:00,59.0,53.0,29.88,South,178,5.0,15.0,80,0.00,,,0.11,,2013-11-17 18:23:00,
2013-11-17 13:42:00,59.0,53.0,29.88,SSW,207,2.0,9.0,80,0.00,,,0.11,,2013-11-17 18:42:00,
2013-11-17 13:52:00,59.0,53.0,29.87,South,173,4.0,9.0,80,0.00,,,0.11,,2013-11-17 18:52:00,
2013-11-17 14:12:00,59.0,53.0,29.86,South,178,4.0,10.0,80,0.00,,,0.11,,2013-11-17 19:12:00,
2013-11-17 14:22:00,59.0,52.0,29.86,SSE,162,3.0,11.0,79,0.00,,,0.11,,2013-11-17 19:22:00,
2013-11-17 14:42:00,59.0,52.0,29.85,South,188,4.0,12.0,79,0.00,,,0.11,,2013-11-17 19:42:00,
2013-11-17 14:52:00,60.0,53.0,29.85,South,191,5.0,12.0,78,0.00,,,0.11,,2013-11-17 19:52:00,
2013-11-17 15:12:00,60.0,52.0,29.83,South,178,5.0,12.0,76,0.00,,,0.11,,2013-11-17 20:12:00,
2013-11-17 15:22:00,61.0,53.0,29.82,South,180,4.0,10.0,76,0.00,,,0.11,,2013-11-17 20:22:00,
2013-11-17 15:43:00,61.0,53.0,29.81,ESE,122,4.0,12.0,75,0.00,,,0.11,,2013-11-17 20:43:00,
2013-11-17 15:52:00,60.0,52.0,29.80,SSE,161,4.0,13.0,76,0.00,,,0.11,,2013-11-17 20:52:00,
2013-11-17 16:12:00,60.0,52.0,29.79,SSW,207,5.0,10.0,76,0.00,,,0.11,,2013-11-17 21:12:00,
2013-11-17 16:22:00,60.0,53.0,29.78,South,189,1.0,10.0,77,0.00,,,0.11,,2013-11-17 21:22:00,
2013-11-17 16:44:00,60.0,53.0,29.78,South,170,5.0,11.0,77,0.00,,,0.11,,2013-11-17 21:44:00,
2013-11-17 16:55:00,60.0,53.0,29.77,SSE,168,7.0,12.0,77,0.00,,,0.11,,2013-11-17 21:55:00,
2013-11-17 17:14:00,60.0,53.0,29.76,SSW,198,6.0,14.0,77,0.00,,,0.11,,2013-11-17 22:14:00,
2013-11-17 17:24:00,59.0,52.0,29.75,South,172,8.0,14.0,77,0.00,,,0.11,,2013-11-17 22:24:00,
2013-11-17 17:43:00,59.0,52.0,29.75,South,173,7.0,18.0,77,0.00,,,0.11,,2013-11-17 22:43:00,
2013-11-17 17:53:00,59.0,52.0,29.73,SE,142,10.0,16.0,77,0.00,,,0.11,,2013-11-17 22:53:00,
2013-11-17 18:12:00,59.0,52.0,29.72,SSW,192,11.0,21.0,77,0.00,,,0.11,,2013-11-17 23:12:00,
2013-11-17 18:23:00,60.0,53.0,29.72,South,169,9.0,22.0,77,0.00,,,0.11,,2013-11-17 23:23:00,
2013-11-17 18:42:00,60.0,53.0,29.70,SE,140,7.0,19.0,77,0.00,,,0.11,,2013-11-17 23:42:00,
2013-11-17 18:52:00,59.0,52.0,29.70,SSE,167,9.0,17.0,78,0.00,,,0.11,,2013-11-17 23:52:00,
2013-11-17 19:11:00,59.0,52.0,29.69,SSE,161,9.0,16.0,79,0.00,,,0.11,,2013-11-18 00:11:00,
2013-11-17 19:22:00,59.0,53.0,29.68,South,180,5.0,14.0,80,0.00,,,0.11,,2013-11-18 00:22:00,
2013-11-17 19:42:00,59.0,52.0,29.67,SSE,150,7.0,13.0,79,0.00,,,0.11,,2013-11-18 00:42:00,
2013-11-17 19:52:00,58.0,52.0,29.65,SSE,148,9.0,17.0,80,0.00,,,0.11,,2013-11-18 00:52:00,
2013-11-17 20:11:00,59.0,53.0,29.64,South,177,8.0,20.0,80,0.00,,,0.11,,2013-11-18 01:11:00,
2013-11-17 20:22:00,59.0,53.0,29.62,SSE,150,10.0,17.0,80,0.00,,,0.11,,2013-11-18 01:22:00,
2013-11-17 20:42:00,59.0,52.0,29.60,SE,140,8.0,18.0,79,0.00,,,0.11,,2013-11-18 01:42:00,
2013-11-17 20:52:00,59.0,52.0,29.57,South,188,9.0,23.0,79,0.00,,,0.11,,2013-11-18 01:52:00,
2013-11-17 21:11:00,59.0,53.0,29.56,SSE,162,9.0,19.0,80,0.00,,,0.11,,2013-11-18 02:11:00,
2013-11-17 21:21:00,59.0,53.0,29.54,SSE,160,7.0,13.0,81,0.00,,,0.11,,2013-11-18 02:21:00,
2013-11-17 21:42:00,58.0,52.0,29.52,SSE,155,8.0,17.0,81,0.00,,,0.11,,2013-11-18 02:42:00,
2013-11-17 21:52:00,58.0,53.0,29.51,South,171,8.0,13.0,82,0.00,,,0.11,,2013-11-18 02:52:00,
2013-11-17 22:11:00,59.0,53.0,29.49,SSE,167,9.0,16.0,80,0.00,,,0.11,,2013-11-18 03:11:00,
2013-11-17 22:22:00,59.0,54.0,29.47,South,178,4.0,12.0,83,0.01,,,0.12,,2013-11-18 03:22:00,
2013-11-17 22:44:00,59.0,54.0,29.47,SE,138,6.0,16.0,82,0.01,,,0.12,,2013-11-18 03:44:00,
2013-11-17 22:54:00,61.0,54.0,29.46,SW,225,7.0,21.0,77,0.01,,,0.12,,2013-11-18 03:54:00,
2013-11-17 23:13:00,61.0,54.0,29.45,SSE,166,8.0,20.0,77,0.01,,,0.12,,2013-11-18 04:13:00,
2013-11-17 23:23:00,61.0,54.0,29.44,South,177,6.0,19.0,78,0.00,,,0.12,,2013-11-18 04:23:00,
2013-11-17 23:42:00,60.0,53.0,29.43,SSE,148,6.0,14.0,79,0.00,,,0.12,,2013-11-18 04:42:00,
2013-11-17 23:52:00,60.0,54.0,29.45,WNW,286,15.0,30.0,82,0.01,,,0.13,,2013-11-18 04:52:00,